createdAt,value
2018-11-22T12:17:50.704Z,100162.00
2018-11-22T12:20:20.654Z,100158.00
2018-11-22T12:22:51.365Z,100157.00
2018-11-22T12:25:22.105Z,100156.00
2018-11-22T12:27:53.251Z,100160.00
2018-11-22T12:30:24.018Z,100154.00
2018-11-22T12:32:58.773Z,100149.00
2018-11-22T12:35:33.483Z,100143.00
2018-11-22T12:38:08.113Z,100154.00
2018-11-22T12:40:37.683Z,100149.00
2018-11-22T12:43:07.161Z,100147.00
2018-11-22T12:45:36.570Z,100149.00
2018-11-22T12:48:06.179Z,100147.00
2018-11-22T12:50:35.696Z,100146.00
2018-11-22T12:53:05.323Z,100141.00
2018-11-22T12:55:34.729Z,100147.00
2018-11-22T12:58:04.112Z,100149.00
2018-11-22T13:00:33.545Z,100160.00
2018-11-22T13:03:02.899Z,100153.00
2018-11-22T13:05:32.284Z,100148.00
2018-11-22T13:08:02.350Z,100144.00
2018-11-22T13:10:31.857Z,100140.00
2018-11-22T13:13:01.787Z,100135.00
2018-11-22T13:15:31.146Z,100140.00
2018-11-22T13:18:00.838Z,100145.00
2018-11-22T13:20:30.297Z,100134.00
2018-11-22T13:22:59.946Z,100138.00
2018-11-22T13:25:29.374Z,100145.00
2018-11-22T13:27:59.343Z,100139.00
2018-11-22T13:30:29.561Z,100139.00
2018-11-22T13:32:59.521Z,100135.00
2018-11-22T13:35:28.876Z,100133.00
2018-11-22T13:37:58.748Z,100134.00
2018-11-22T13:40:28.427Z,100140.00
2018-11-22T13:42:57.977Z,100139.00
2018-11-22T13:45:28.607Z,100143.00
2018-11-22T13:47:59.233Z,100147.00
2018-11-22T13:50:30.258Z,100152.00
2018-11-22T13:53:01.624Z,100145.00
2018-11-22T13:55:31.522Z,100147.00
2018-11-22T13:58:01.049Z,100137.00
2018-11-22T14:00:31.918Z,100133.00
2018-11-22T14:03:02.878Z,100140.00
2018-11-22T14:05:32.926Z,100145.00
2018-11-22T14:08:03.112Z,100141.00
2018-11-22T14:10:32.664Z,100146.00
2018-11-22T14:13:02.319Z,100150.00
2018-11-22T14:15:32.459Z,100153.00
2018-11-22T14:18:03.480Z,100152.00
2018-11-22T14:20:34.571Z,100152.00
2018-11-22T14:23:04.266Z,100158.00
2018-11-22T14:25:33.837Z,100150.00
2018-11-22T14:28:03.791Z,100155.00
2018-11-22T14:30:34.998Z,100158.00
2018-11-22T14:33:04.553Z,100161.00
2018-11-22T14:35:34.352Z,100148.00
2018-11-22T14:38:03.861Z,100166.00
2018-11-22T14:40:33.457Z,100161.00
2018-11-22T14:43:03.032Z,100151.00
2018-11-22T14:45:32.526Z,100147.00
2018-11-22T14:48:02.988Z,100153.00
2018-11-22T14:50:39.041Z,100152.00
2018-11-22T14:53:12.091Z,100152.00
2018-11-22T14:55:41.873Z,100150.00
2018-11-22T14:58:11.480Z,100159.00
2018-11-22T15:00:41.119Z,100158.00
2018-11-22T15:03:10.534Z,100148.00
2018-11-22T15:05:40.039Z,100150.00
2018-11-22T15:08:09.615Z,100153.00
2018-11-22T15:10:39.074Z,100150.00
2018-11-22T15:13:08.569Z,100151.00
2018-11-22T15:15:38.033Z,100157.00
2018-11-22T15:18:07.617Z,100153.00
2018-11-22T15:20:37.062Z,100154.00
2018-11-22T15:23:06.992Z,100153.00
2018-11-22T15:25:36.484Z,100142.00
2018-11-22T15:28:06.105Z,100150.00
2018-11-22T15:30:35.493Z,100147.00
2018-11-22T15:33:05.553Z,100149.00
2018-11-22T15:35:35.015Z,100147.00
2018-11-22T15:38:04.551Z,100145.00
2018-11-22T15:40:34.011Z,100158.00
2018-11-22T15:43:04.787Z,100158.00
2018-11-22T15:45:35.021Z,100156.00
2018-11-22T15:48:03.840Z,100156.00
2018-11-22T15:50:33.265Z,100152.00
2018-11-22T15:53:02.719Z,100167.00
2018-11-22T15:55:32.047Z,100154.00
2018-11-22T15:58:01.737Z,100166.00
2018-11-22T16:00:32.594Z,100158.00
2018-11-22T16:03:02.491Z,100164.00
2018-11-22T16:05:32.719Z,100162.00
2018-11-22T16:08:02.305Z,100155.00
2018-11-22T16:10:33.517Z,100165.00
2018-11-22T16:13:07.725Z,100159.00
2018-11-22T16:15:48.376Z,100167.00
2018-11-22T16:18:17.766Z,100170.00
2018-11-22T16:20:47.277Z,100167.00
2018-11-22T16:23:16.675Z,100168.00
2018-11-22T16:25:46.116Z,100171.00
2018-11-22T16:28:15.802Z,100176.00
2018-11-22T16:30:45.186Z,100175.00
2018-11-22T16:33:14.584Z,100171.00
2018-11-22T16:35:44.922Z,100183.00
2018-11-22T16:38:14.290Z,100179.00
2018-11-22T16:40:43.825Z,100181.00
2018-11-22T16:43:13.191Z,100180.00
2018-11-22T16:45:42.564Z,100178.00
2018-11-22T16:48:13.502Z,100182.00
2018-11-22T16:50:43.619Z,100176.00
2018-11-22T16:53:13.183Z,100176.00
2018-11-22T16:55:42.563Z,100175.00
2018-11-22T16:58:11.926Z,100171.00
2018-11-22T17:00:41.542Z,100175.00
2018-11-22T17:03:13.355Z,100177.00
2018-11-22T17:05:43.373Z,100159.00
2018-11-22T17:08:12.819Z,100170.00
2018-11-22T17:10:42.788Z,100171.00
2018-11-22T17:13:12.240Z,100177.00
2018-11-22T17:15:42.516Z,100183.00
2018-11-22T17:18:12.349Z,100177.00
2018-11-22T17:20:41.727Z,100179.00
2018-11-22T17:23:11.385Z,100184.00
2018-11-22T17:25:41.042Z,100181.00
2018-11-22T17:28:10.764Z,100182.00
2018-11-22T17:30:43.757Z,100184.00
2018-11-22T17:33:13.212Z,100189.00
2018-11-22T17:35:43.345Z,100181.00
2018-11-22T17:38:13.632Z,100181.00
2018-11-22T17:40:44.862Z,100187.00
2018-11-22T17:43:15.492Z,100185.00
2018-11-22T17:45:46.521Z,100182.00
2018-11-22T17:48:17.212Z,100179.00
2018-11-22T17:50:47.887Z,100177.00
2018-11-22T17:53:17.613Z,100172.00
2018-11-22T17:55:47.020Z,100181.00
2018-11-22T17:58:17.319Z,100170.00
2018-11-22T18:00:48.768Z,100174.00
2018-11-22T18:03:18.369Z,100174.00
2018-11-22T18:05:48.453Z,100169.00
2018-11-22T18:08:18.103Z,100173.00
2018-11-22T18:10:48.245Z,100165.00
2018-11-22T18:13:17.913Z,100165.00
2018-11-22T18:15:53.594Z,100176.00
2018-11-22T18:18:23.102Z,100163.00
2018-11-22T18:20:52.721Z,100167.00
2018-11-22T18:23:22.300Z,100163.00
2018-11-22T18:25:51.804Z,100164.00
2018-11-22T18:28:21.152Z,100154.00
2018-11-22T18:30:50.639Z,100159.00
2018-11-22T18:33:20.055Z,100164.00
2018-11-22T18:35:49.513Z,100165.00
2018-11-22T18:38:19.006Z,100163.00
2018-11-22T18:40:48.924Z,100160.00
2018-11-22T18:43:19.258Z,100169.00
2018-11-22T18:45:49.219Z,100157.00
2018-11-22T18:48:19.738Z,100173.00
2018-11-22T18:50:49.330Z,100168.00
2018-11-22T18:53:18.738Z,100161.00
2018-11-22T18:55:48.250Z,100160.00
2018-11-22T18:58:17.749Z,100164.00
2018-11-22T19:00:47.671Z,100166.00
2018-11-22T19:03:19.332Z,100167.00
2018-11-22T19:05:49.395Z,100173.00
2018-11-22T19:08:18.884Z,100165.00
2018-11-22T19:10:48.398Z,100172.00
2018-11-22T19:13:17.982Z,100173.00
2018-11-22T19:15:49.488Z,100166.00
2018-11-22T19:18:19.357Z,100173.00
2018-11-22T19:20:48.940Z,100183.00
2018-11-22T19:23:18.669Z,100171.00
2018-11-22T19:25:48.168Z,100170.00
2018-11-22T19:28:17.664Z,100173.00
2018-11-22T19:30:48.617Z,100168.00
2018-11-22T19:33:19.300Z,100169.00
2018-11-22T19:35:50.736Z,100164.00
2018-11-22T19:38:20.228Z,100160.00
2018-11-22T19:40:49.938Z,100167.00
2018-11-22T19:43:20.203Z,100175.00
2018-11-22T19:45:50.291Z,100175.00
2018-11-22T19:48:19.812Z,100168.00
2018-11-22T19:50:50.171Z,100164.00
2018-11-22T19:53:19.595Z,100168.00
2018-11-22T19:55:49.626Z,100176.00
2018-11-22T19:58:19.437Z,100174.00
2018-11-22T20:00:48.882Z,100179.00
2018-11-22T20:03:19.089Z,100182.00
2018-11-22T20:05:48.462Z,100182.00
2018-11-22T20:08:19.201Z,100176.00
2018-11-22T20:10:48.997Z,100198.00
2018-11-22T20:13:18.316Z,100188.00
2018-11-22T20:15:47.923Z,100183.00
2018-11-22T20:18:17.345Z,100192.00
2018-11-22T20:20:49.897Z,100183.00
2018-11-22T20:23:21.574Z,100191.00
2018-11-22T20:25:45.597Z,100192.00
2018-11-22T20:28:15.010Z,100186.00
2018-11-22T20:30:45.623Z,100193.00
2018-11-22T20:33:15.193Z,100185.00
2018-11-22T20:35:44.771Z,100191.00
2018-11-22T20:38:14.125Z,100189.00
2018-11-22T20:40:43.457Z,100195.00
2018-11-22T20:43:12.808Z,100192.00
2018-11-22T20:45:42.253Z,100194.00
2018-11-22T20:48:11.757Z,100191.00
2018-11-22T20:50:41.113Z,100194.00
2018-11-22T20:53:10.439Z,100193.00
2018-11-22T20:55:40.629Z,100187.00
2018-11-22T20:58:10.163Z,100190.00
2018-11-22T21:00:40.991Z,100189.00
2018-11-22T21:03:10.452Z,100195.00
2018-11-22T21:05:39.890Z,100198.00
2018-11-22T21:08:09.312Z,100189.00
2018-11-22T21:10:38.969Z,100199.00
2018-11-22T21:13:08.554Z,100190.00
2018-11-22T21:15:38.065Z,100196.00
2018-11-22T21:18:08.800Z,100194.00
2018-11-22T21:20:40.200Z,100196.00
2018-11-22T21:23:09.857Z,100200.00
2018-11-22T21:25:39.270Z,100202.00
2018-11-22T21:28:08.753Z,100200.00
2018-11-22T21:30:39.413Z,100202.00
2018-11-22T21:33:09.517Z,100198.00
2018-11-22T21:35:38.932Z,100197.00
2018-11-22T21:38:08.963Z,100193.00
2018-11-22T21:40:38.475Z,100199.00
2018-11-22T21:43:07.973Z,100200.00
2018-11-22T21:45:37.744Z,100213.00
2018-11-22T21:48:07.196Z,100215.00
2018-11-22T21:50:36.668Z,100207.00
2018-11-22T21:53:06.120Z,100212.00
2018-11-22T21:55:35.659Z,100209.00
2018-11-22T21:58:05.364Z,100200.00
2018-11-22T22:00:38.398Z,100208.00
2018-11-22T22:03:09.491Z,100205.00
2018-11-22T22:05:39.621Z,100195.00
2018-11-22T22:08:09.356Z,100203.00
2018-11-22T22:10:38.804Z,100197.00
2018-11-22T22:13:08.231Z,100194.00
2018-11-22T22:15:38.137Z,100196.00
2018-11-22T22:18:09.096Z,100203.00
2018-11-22T22:20:38.876Z,100202.00
2018-11-22T22:23:13.316Z,100204.00
2018-11-22T22:25:38.321Z,100204.00
2018-11-22T22:28:07.735Z,100199.00
2018-11-22T22:30:37.583Z,100200.00
2018-11-22T22:33:07.520Z,100203.00
2018-11-22T22:35:37.446Z,100197.00
2018-11-22T22:38:07.013Z,100200.00
2018-11-22T22:40:36.502Z,100205.00
2018-11-22T22:43:06.090Z,100203.00
2018-11-22T22:45:35.521Z,100193.00
2018-11-22T22:48:05.508Z,100201.00
2018-11-22T22:50:35.149Z,100198.00
2018-11-22T22:53:04.666Z,100200.00
2018-11-22T22:55:34.169Z,100204.00
2018-11-22T22:58:03.687Z,100206.00
2018-11-22T23:00:36.624Z,100201.00
2018-11-22T23:03:08.043Z,100196.00
2018-11-22T23:05:37.935Z,100194.00
2018-11-22T23:08:07.629Z,100191.00
2018-11-22T23:10:37.208Z,100197.00
2018-11-22T23:13:07.484Z,100195.00
2018-11-22T23:15:37.950Z,100191.00
2018-11-22T23:18:07.409Z,100193.00
2018-11-22T23:20:37.905Z,100198.00
2018-11-22T23:23:07.387Z,100191.00
2018-11-22T23:25:37.790Z,100194.00
2018-11-22T23:28:07.241Z,100189.00
2018-11-22T23:30:36.891Z,100192.00
2018-11-22T23:33:07.747Z,100189.00
2018-11-22T23:35:37.174Z,100197.00
2018-11-22T23:38:06.856Z,100189.00
2018-11-22T23:40:36.582Z,100189.00
2018-11-22T23:43:06.334Z,100188.00
2018-11-22T23:45:35.795Z,100195.00
2018-11-22T23:48:05.275Z,100200.00
2018-11-22T23:50:34.821Z,100191.00
2018-11-22T23:53:05.472Z,100195.00
2018-11-22T23:55:34.917Z,100194.00
2018-11-22T23:58:04.829Z,100188.00
